Anglesea, New Jersey
Current Conditions -  °F | °C
As of 12:35 AM on Monday 20 Oct 2014 (Local Time) from KWWD Reporting Station
Clear Clear  
Wind Chill:   Ceiling: Unl
Heat Index:   Visibility: 10mi
Dew Point:   Wind: 0mph
Humidity: 76%   Direction: NA
Pressure: 30.1"   Gusts: NA
Location:  38.9808°N, 74.8281°W
Report Text: KWWD 200435Z AUTO 00000KT 10SM CLR 05/01 A3010 RMK AO1
Loading
Personal Weather Stations






























Interactive Weather Map
Tropical Storm Tracking
New forecast layout! Learn more

10-Day Weather Forecast

Advertisements
Track Severe Weather on mobile